createdAt,value
2024-02-09T00:00:46.894Z,905.00
2024-02-09T00:01:46.923Z,904.00
2024-02-09T00:02:47.003Z,901.00
2024-02-09T00:03:47.043Z,902.00
2024-02-09T00:04:47.140Z,902.00
2024-02-09T00:05:46.982Z,905.00
2024-02-09T00:06:47.149Z,904.00
2024-02-09T00:07:47.365Z,901.00
2024-02-09T00:08:47.184Z,899.00
2024-02-09T00:09:47.116Z,899.00
2024-02-09T00:10:47.158Z,899.00
2024-02-09T00:11:47.166Z,896.00
2024-02-09T00:12:47.220Z,893.00
2024-02-09T00:13:47.249Z,892.00
2024-02-09T00:14:47.271Z,893.00
2024-02-09T00:15:47.654Z,898.00
2024-02-09T00:16:47.383Z,898.00
2024-02-09T00:17:47.757Z,897.00
2024-02-09T00:18:47.457Z,898.00
2024-02-09T00:19:47.442Z,903.00
2024-02-09T00:20:47.428Z,903.00
2024-02-09T00:21:47.486Z,903.00
2024-02-09T00:22:47.529Z,904.00
2024-02-09T00:23:47.552Z,904.00
2024-02-09T00:24:48.069Z,904.00
2024-02-09T00:25:47.637Z,904.00
2024-02-09T00:26:47.618Z,904.00
2024-02-09T00:27:47.651Z,903.00
2024-02-09T00:28:47.733Z,901.00
2024-02-09T00:29:47.714Z,901.00
2024-02-09T00:30:47.744Z,901.00
2024-02-09T00:31:47.757Z,900.00
2024-02-09T00:32:47.987Z,898.00
2024-02-09T00:33:47.938Z,897.00
2024-02-09T00:34:47.859Z,898.00
2024-02-09T00:35:47.935Z,897.00
2024-02-09T00:36:47.923Z,898.00
2024-02-09T00:37:47.952Z,897.00
2024-02-09T00:38:47.972Z,900.00
2024-02-09T00:39:48.010Z,901.00
2024-02-09T00:40:48.066Z,902.00
2024-02-09T00:41:48.074Z,901.00
2024-02-09T00:42:48.103Z,901.00
2024-02-09T00:43:48.144Z,901.00
2024-02-09T00:44:48.166Z,899.00
2024-02-09T00:45:48.204Z,899.00
2024-02-09T00:46:48.270Z,896.00
2024-02-09T00:47:48.333Z,894.00
2024-02-09T00:48:48.309Z,893.00
2024-02-09T00:49:48.433Z,892.00
2024-02-09T00:50:49.324Z,891.00
2024-02-09T00:51:48.359Z,890.00
2024-02-09T00:52:48.328Z,887.00
2024-02-09T00:53:48.317Z,889.00
2024-02-09T00:54:48.322Z,888.00
2024-02-09T00:55:48.361Z,888.00
2024-02-09T00:56:48.324Z,886.00
2024-02-09T00:57:48.330Z,886.00
2024-02-09T00:58:48.400Z,887.00
2024-02-09T00:59:48.317Z,887.00
2024-02-09T01:00:48.343Z,885.00
2024-02-09T01:01:57.716Z,882.00
2024-02-09T01:02:49.344Z,883.00
2024-02-09T01:03:48.344Z,884.00
2024-02-09T01:04:48.449Z,883.00
2024-02-09T01:05:48.494Z,885.00
2024-02-09T01:06:48.367Z,882.00
2024-02-09T01:07:48.397Z,882.00
2024-02-09T01:08:48.344Z,883.00
2024-02-09T01:09:48.354Z,882.00
2024-02-09T01:10:48.488Z,880.00
2024-02-09T01:11:48.335Z,876.00
2024-02-09T01:12:48.331Z,874.00
2024-02-09T01:13:48.342Z,874.00
2024-02-09T01:14:48.350Z,872.00
2024-02-09T01:15:48.359Z,872.00
2024-02-09T01:16:48.395Z,873.00
2024-02-09T01:17:48.371Z,877.00
2024-02-09T01:18:48.386Z,876.00
2024-02-09T01:19:48.399Z,876.00
2024-02-09T01:20:48.379Z,877.00
2024-02-09T01:21:48.398Z,878.00
2024-02-09T01:22:48.438Z,877.00
2024-02-09T01:23:48.482Z,876.00
2024-02-09T01:24:48.494Z,874.00
2024-02-09T01:25:48.532Z,874.00
2024-02-09T01:26:48.569Z,877.00
2024-02-09T01:27:48.617Z,879.00
2024-02-09T01:28:48.644Z,879.00
2024-02-09T01:29:48.695Z,882.00
2024-02-09T01:30:48.698Z,882.00
2024-02-09T01:31:48.743Z,883.00
2024-02-09T01:32:48.846Z,883.00
2024-02-09T01:33:48.885Z,880.00
2024-02-09T01:34:49.008Z,878.00
2024-02-09T01:35:48.932Z,879.00
2024-02-09T01:36:48.918Z,878.00
2024-02-09T01:37:48.951Z,878.00
2024-02-09T01:38:48.973Z,878.00
2024-02-09T01:39:49.006Z,876.00
2024-02-09T01:40:49.034Z,874.00
2024-02-09T01:41:49.075Z,872.00
2024-02-09T01:42:49.109Z,871.00
2024-02-09T01:43:49.142Z,872.00
2024-02-09T01:44:49.172Z,873.00
2024-02-09T01:46:00.816Z,873.00
2024-02-09T01:46:49.381Z,871.00
2024-02-09T01:47:49.524Z,871.00
2024-02-09T01:48:49.522Z,869.00
2024-02-09T01:49:49.508Z,870.00
2024-02-09T01:50:49.499Z,871.00
2024-02-09T01:51:49.509Z,872.00
2024-02-09T01:52:49.628Z,868.00
2024-02-09T01:53:49.584Z,866.00
2024-02-09T01:54:49.670Z,866.00
2024-02-09T01:55:49.688Z,867.00
2024-02-09T01:56:49.693Z,868.00
2024-02-09T01:57:49.739Z,867.00
2024-02-09T01:58:49.782Z,865.00
2024-02-09T01:59:49.827Z,865.00
2024-02-09T02:00:49.880Z,865.00
2024-02-09T02:01:49.998Z,865.00
2024-02-09T02:02:49.939Z,865.00
2024-02-09T02:03:50.055Z,868.00
2024-02-09T02:04:50.162Z,868.00
2024-02-09T02:05:50.104Z,866.00
2024-02-09T02:06:50.095Z,863.00
2024-02-09T02:07:50.174Z,860.00
2024-02-09T02:08:50.183Z,855.00
2024-02-09T02:09:50.230Z,851.00
2024-02-09T02:10:50.253Z,851.00
2024-02-09T02:11:50.305Z,850.00
2024-02-09T02:12:50.359Z,850.00
2024-02-09T02:13:50.386Z,851.00
2024-02-09T02:14:50.437Z,853.00
2024-02-09T02:15:50.477Z,852.00
2024-02-09T02:16:50.561Z,851.00
2024-02-09T02:17:50.634Z,849.00
2024-02-09T02:18:50.630Z,848.00
2024-02-09T02:19:50.664Z,848.00
2024-02-09T02:20:50.688Z,847.00
2024-02-09T02:21:50.695Z,847.00
2024-02-09T02:22:50.758Z,847.00
2024-02-09T02:23:50.824Z,847.00
2024-02-09T02:24:50.797Z,846.00
2024-02-09T02:25:50.866Z,846.00
2024-02-09T02:26:50.883Z,846.00
2024-02-09T02:27:50.930Z,846.00
2024-02-09T02:28:50.976Z,845.00
2024-02-09T02:29:51.003Z,848.00
2024-02-09T02:30:51.044Z,848.00
2024-02-09T02:31:51.093Z,846.00
2024-02-09T02:32:51.165Z,845.00
2024-02-09T02:33:51.299Z,846.00
2024-02-09T02:34:51.270Z,847.00
2024-02-09T02:35:51.250Z,847.00
2024-02-09T02:36:51.294Z,846.00
2024-02-09T02:37:51.332Z,848.00
2024-02-09T02:38:51.361Z,847.00
2024-02-09T02:39:51.422Z,847.00
2024-02-09T02:40:51.460Z,850.00
2024-02-09T02:41:51.472Z,853.00
2024-02-09T02:42:51.540Z,851.00
2024-02-09T02:43:51.601Z,851.00
2024-02-09T02:44:51.654Z,850.00
2024-02-09T02:45:51.671Z,849.00
2024-02-09T02:46:51.715Z,848.00
2024-02-09T02:47:51.759Z,848.00
2024-02-09T02:48:51.808Z,847.00
2024-02-09T02:49:51.883Z,847.00
2024-02-09T02:50:51.881Z,846.00
2024-02-09T02:51:51.899Z,843.00
2024-02-09T02:52:51.953Z,842.00
2024-02-09T02:53:51.990Z,843.00
2024-02-09T02:54:52.029Z,842.00
2024-02-09T02:55:52.078Z,842.00
2024-02-09T02:56:52.117Z,841.00
2024-02-09T02:57:52.187Z,843.00
2024-02-09T02:58:52.228Z,844.00
2024-02-09T02:59:52.262Z,844.00
2024-02-09T03:00:52.357Z,845.00
2024-02-09T03:01:52.374Z,845.00
2024-02-09T03:02:52.391Z,843.00
2024-02-09T03:03:52.481Z,842.00
2024-02-09T03:04:52.614Z,842.00
2024-02-09T03:05:52.608Z,841.00
2024-02-09T03:07:13.653Z,838.00
2024-02-09T03:08:33.128Z,837.00
2024-02-09T03:08:53.658Z,838.00
2024-02-09T03:09:52.629Z,838.00
2024-02-09T03:10:52.648Z,838.00
2024-02-09T03:11:52.593Z,840.00
2024-02-09T03:12:52.600Z,839.00
2024-02-09T03:13:52.599Z,838.00
2024-02-09T03:14:52.608Z,838.00
2024-02-09T03:15:52.614Z,836.00
2024-02-09T03:16:52.596Z,837.00
2024-02-09T03:17:52.646Z,838.00
2024-02-09T03:18:52.620Z,836.00
2024-02-09T03:19:52.681Z,836.00
2024-02-09T03:20:52.609Z,836.00
2024-02-09T03:21:52.596Z,835.00
2024-02-09T03:22:52.626Z,836.00
2024-02-09T03:23:52.594Z,836.00
2024-02-09T03:24:52.606Z,834.00
2024-02-09T03:25:52.612Z,833.00
2024-02-09T03:26:52.626Z,834.00
2024-02-09T03:27:52.611Z,835.00
2024-02-09T03:28:52.631Z,832.00
2024-02-09T03:29:52.608Z,834.00
2024-02-09T03:30:52.629Z,835.00
2024-02-09T03:31:52.618Z,838.00
2024-02-09T03:32:52.884Z,835.00
2024-02-09T03:33:52.670Z,832.00
2024-02-09T03:34:52.731Z,828.00
2024-02-09T03:35:52.738Z,825.00
2024-02-09T03:36:52.623Z,826.00
2024-02-09T03:37:52.630Z,831.00
2024-02-09T03:38:52.627Z,829.00
2024-02-09T03:39:52.642Z,825.00
2024-02-09T03:40:57.742Z,824.00
2024-02-09T03:41:52.691Z,824.00
2024-02-09T03:42:52.712Z,824.00
2024-02-09T03:43:52.748Z,823.00
2024-02-09T03:44:52.710Z,822.00
2024-02-09T03:45:52.720Z,822.00
2024-02-09T03:46:52.719Z,825.00
2024-02-09T03:47:52.767Z,825.00
2024-02-09T03:48:52.756Z,823.00
2024-02-09T03:49:52.783Z,821.00
2024-02-09T03:50:52.713Z,821.00
2024-02-09T03:51:52.711Z,824.00
2024-02-09T03:52:52.713Z,823.00
2024-02-09T03:53:52.714Z,825.00
2024-02-09T03:54:52.767Z,824.00
2024-02-09T03:55:52.836Z,824.00
2024-02-09T03:56:52.841Z,822.00
2024-02-09T03:57:52.865Z,823.00
2024-02-09T03:58:52.921Z,824.00
2024-02-09T03:59:52.917Z,823.00
2024-02-09T04:00:53.024Z,822.00
2024-02-09T04:01:53.015Z,824.00
2024-02-09T04:02:53.002Z,823.00
2024-02-09T04:03:53.144Z,820.00
2024-02-09T04:04:53.092Z,819.00
2024-02-09T04:05:53.151Z,817.00
2024-02-09T04:06:53.084Z,817.00
2024-02-09T04:07:53.080Z,819.00
2024-02-09T04:08:53.112Z,819.00
2024-02-09T04:10:15.068Z,822.00
2024-02-09T04:10:54.161Z,822.00
2024-02-09T04:11:53.154Z,823.00
2024-02-09T04:12:53.150Z,824.00
2024-02-09T04:13:53.151Z,824.00
2024-02-09T04:14:53.147Z,821.00
2024-02-09T04:15:53.130Z,823.00
2024-02-09T04:16:53.146Z,819.00
2024-02-09T04:17:53.315Z,819.00
2024-02-09T04:18:53.149Z,820.00
2024-02-09T04:19:53.158Z,818.00
2024-02-09T04:20:53.141Z,819.00
2024-02-09T04:21:53.122Z,818.00
2024-02-09T04:22:53.128Z,817.00
2024-02-09T04:23:53.122Z,819.00
2024-02-09T04:24:53.132Z,816.00
2024-02-09T04:25:53.132Z,814.00
2024-02-09T04:26:53.156Z,814.00
2024-02-09T04:27:53.215Z,814.00
2024-02-09T04:28:53.152Z,814.00
2024-02-09T04:29:53.160Z,817.00
2024-02-09T04:30:53.156Z,819.00
2024-02-09T04:31:53.139Z,818.00
2024-02-09T04:33:00.468Z,805.00
2024-02-09T04:34:00.554Z,806.00
2024-02-09T04:35:00.480Z,806.00
2024-02-09T04:36:00.645Z,808.00
2024-02-09T04:37:00.389Z,809.00
2024-02-09T04:38:00.389Z,810.00
2024-02-09T04:39:00.422Z,806.00
2024-02-09T04:40:00.478Z,805.00
2024-02-09T04:41:00.461Z,807.00
2024-02-09T04:42:00.460Z,806.00
2024-02-09T04:43:00.415Z,807.00
2024-02-09T04:44:00.448Z,804.00
2024-02-09T04:45:00.402Z,805.00
2024-02-09T04:46:00.462Z,805.00
2024-02-09T04:47:00.413Z,803.00
2024-02-09T04:48:00.645Z,804.00
2024-02-09T04:49:00.553Z,804.00
2024-02-09T04:50:00.500Z,803.00
2024-02-09T04:51:00.397Z,802.00
2024-02-09T04:52:00.437Z,801.00
2024-02-09T04:53:00.430Z,802.00
2024-02-09T04:54:00.470Z,802.00
2024-02-09T04:55:00.748Z,801.00
2024-02-09T04:56:00.614Z,802.00
2024-02-09T04:57:00.680Z,802.00
2024-02-09T04:58:00.784Z,800.00
2024-02-09T04:59:00.830Z,800.00
2024-02-09T05:00:00.914Z,800.00
2024-02-09T05:01:01.078Z,802.00
2024-02-09T05:02:01.143Z,806.00
2024-02-09T05:03:01.096Z,806.00
2024-02-09T05:04:01.294Z,807.00
2024-02-09T05:05:01.407Z,807.00
2024-02-09T05:06:01.348Z,805.00
2024-02-09T05:07:01.414Z,803.00
2024-02-09T05:08:01.472Z,805.00
2024-02-09T05:09:01.539Z,803.00
2024-02-09T05:10:01.657Z,802.00
2024-02-09T05:11:01.666Z,800.00
2024-02-09T05:12:01.748Z,800.00
2024-02-09T05:13:01.819Z,798.00
2024-02-09T05:14:01.864Z,798.00
2024-02-09T05:15:01.916Z,798.00
2024-02-09T05:16:02.022Z,799.00
2024-02-09T05:17:02.040Z,801.00
2024-02-09T05:18:02.171Z,799.00
2024-02-09T05:19:02.276Z,800.00
2024-02-09T05:20:02.365Z,802.00
2024-02-09T05:21:02.323Z,803.00
2024-02-09T05:22:02.415Z,804.00
2024-02-09T05:23:03.001Z,803.00
2024-02-09T05:24:02.546Z,799.00
2024-02-09T05:25:02.656Z,799.00
2024-02-09T05:26:06.110Z,798.00
2024-02-09T05:27:02.697Z,798.00
2024-02-09T05:28:02.717Z,799.00
2024-02-09T05:29:02.689Z,797.00
2024-02-09T05:30:02.709Z,797.00
2024-02-09T05:31:02.778Z,795.00
2024-02-09T05:32:02.711Z,794.00
2024-02-09T05:33:02.756Z,793.00
2024-02-09T05:34:02.784Z,796.00
2024-02-09T05:35:02.816Z,796.00
2024-02-09T05:36:02.691Z,797.00
2024-02-09T05:37:02.736Z,799.00
2024-02-09T05:38:02.704Z,798.00
2024-02-09T05:39:02.752Z,799.00
2024-02-09T05:40:02.755Z,801.00
2024-02-09T05:41:02.689Z,801.00
2024-02-09T05:42:02.697Z,797.00
2024-02-09T05:43:02.777Z,797.00
2024-02-09T05:44:02.720Z,795.00
2024-02-09T05:45:02.684Z,795.00
2024-02-09T05:46:02.746Z,797.00
2024-02-09T05:47:02.691Z,797.00
2024-02-09T05:48:02.751Z,797.00
2024-02-09T05:49:02.806Z,795.00
2024-02-09T05:50:02.863Z,795.00
2024-02-09T05:51:02.693Z,795.00
2024-02-09T05:52:02.762Z,795.00
2024-02-09T05:53:02.797Z,791.00
2024-02-09T05:54:02.881Z,793.00
2024-02-09T05:55:02.992Z,791.00
2024-02-09T05:56:03.020Z,791.00
2024-02-09T05:57:03.069Z,789.00
2024-02-09T05:58:03.157Z,790.00
2024-02-09T05:59:03.834Z,790.00
2024-02-09T06:00:03.271Z,792.00
2024-02-09T06:01:03.417Z,792.00
2024-02-09T06:02:03.478Z,793.00
2024-02-09T06:03:03.484Z,794.00
2024-02-09T06:04:03.730Z,794.00
2024-02-09T06:05:03.689Z,794.00
2024-02-09T06:06:03.805Z,793.00
2024-02-09T06:07:03.837Z,794.00
2024-02-09T06:08:03.818Z,792.00
2024-02-09T06:09:03.934Z,793.00
2024-02-09T06:10:03.993Z,794.00
2024-02-09T06:11:04.106Z,795.00
2024-02-09T06:12:04.114Z,795.00
2024-02-09T06:13:04.303Z,794.00
2024-02-09T06:14:04.273Z,794.00
2024-02-09T06:15:04.352Z,795.00
2024-02-09T06:16:04.470Z,793.00
2024-02-09T06:17:04.470Z,790.00
2024-02-09T06:18:04.585Z,791.00
2024-02-09T06:19:04.765Z,793.00
2024-02-09T06:20:04.745Z,792.00
2024-02-09T06:21:05.013Z,791.00
2024-02-09T06:22:04.835Z,791.00
2024-02-09T06:23:04.910Z,793.00
2024-02-09T06:24:04.973Z,791.00
2024-02-09T06:25:05.091Z,791.00
2024-02-09T06:26:05.109Z,790.00
2024-02-09T06:27:05.172Z,793.00
2024-02-09T06:28:05.267Z,792.00
2024-02-09T06:29:05.333Z,793.00
2024-02-09T06:30:05.384Z,791.00
2024-02-09T06:31:05.576Z,792.00
2024-02-09T06:32:05.527Z,794.00
2024-02-09T06:33:05.687Z,795.00
2024-02-09T06:34:05.755Z,796.00
2024-02-09T06:35:06.148Z,799.00
2024-02-09T06:36:05.814Z,801.00
2024-02-09T06:37:05.968Z,807.00
2024-02-09T06:38:05.974Z,816.00
2024-02-09T06:39:06.006Z,825.00
2024-02-09T06:40:06.146Z,832.00
2024-02-09T06:41:06.149Z,858.00
2024-02-09T06:42:06.196Z,863.00
2024-02-09T06:43:06.359Z,873.00
2024-02-09T06:44:06.334Z,876.00
2024-02-09T06:45:06.388Z,883.00
2024-02-09T06:46:06.492Z,907.00
2024-02-09T06:47:06.509Z,901.00
2024-02-09T06:48:06.580Z,736.00
2024-02-09T06:49:06.910Z,695.00
2024-02-09T06:50:06.696Z,667.00
2024-02-09T06:51:06.733Z,656.00
2024-02-09T06:52:06.697Z,650.00
2024-02-09T06:53:06.810Z,663.00
2024-02-09T06:54:06.792Z,798.00
2024-02-09T06:55:06.845Z,875.00
2024-02-09T06:56:06.884Z,871.00
2024-02-09T06:57:06.897Z,1023.00
2024-02-09T06:58:06.963Z,1048.00
2024-02-09T06:59:06.912Z,1074.00
2024-02-09T07:00:06.922Z,1272.00
2024-02-09T07:01:07.138Z,1226.00
2024-02-09T07:02:07.123Z,1197.00
2024-02-09T07:03:07.154Z,1190.00
2024-02-09T07:04:07.179Z,1185.00
2024-02-09T07:05:07.195Z,1188.00
2024-02-09T07:06:07.232Z,1201.00
2024-02-09T07:07:07.302Z,1253.00
2024-02-09T07:08:07.241Z,1291.00
2024-02-09T07:09:07.325Z,1317.00
2024-02-09T07:10:07.293Z,1349.00
2024-02-09T07:11:07.323Z,1375.00
2024-02-09T07:12:07.387Z,1390.00
2024-02-09T07:13:07.538Z,1412.00
2024-02-09T07:14:07.507Z,1470.00
2024-02-09T07:15:07.691Z,1498.00
2024-02-09T07:16:07.674Z,1517.00
2024-02-09T07:17:07.679Z,1621.00
2024-02-09T07:18:07.714Z,1654.00
2024-02-09T07:19:07.789Z,1648.00
2024-02-09T07:20:07.829Z,1670.00
2024-02-09T07:21:07.798Z,1702.00
2024-02-09T07:22:07.881Z,1724.00
2024-02-09T07:23:07.855Z,1739.00
2024-02-09T07:24:09.570Z,1754.00
2024-02-09T07:25:08.030Z,1778.00
2024-02-09T07:26:07.898Z,1820.00
2024-02-09T07:27:07.926Z,1865.00
2024-02-09T07:28:07.970Z,1917.00
2024-02-09T07:29:07.938Z,1928.00
2024-02-09T07:30:07.963Z,1947.00
2024-02-09T07:31:07.978Z,1964.00
2024-02-09T07:32:07.939Z,1987.00
2024-02-09T07:33:08.048Z,2000.00
2024-02-09T07:34:08.052Z,2044.00
2024-02-09T07:35:08.060Z,2083.00
2024-02-09T07:36:08.486Z,2095.00
2024-02-09T07:37:08.085Z,2111.00
2024-02-09T07:38:08.102Z,2139.00
2024-02-09T07:39:08.166Z,2167.00
2024-02-09T07:40:08.259Z,2189.00
2024-02-09T07:41:08.302Z,2202.00
2024-02-09T07:42:08.333Z,2229.00
2024-02-09T07:43:08.452Z,2275.00
2024-02-09T07:44:08.436Z,2290.00
2024-02-09T07:45:08.456Z,2304.00
2024-02-09T07:46:08.540Z,2321.00
2024-02-09T07:47:08.494Z,2334.00
2024-02-09T07:48:08.749Z,2349.00
2024-02-09T07:49:08.614Z,2374.00
2024-02-09T07:50:08.601Z,2418.00
2024-02-09T07:51:08.631Z,2478.00
2024-02-09T07:52:08.720Z,2498.00
2024-02-09T07:53:08.753Z,2482.00
2024-02-09T07:54:08.797Z,2482.00
2024-02-09T07:55:09.255Z,2482.00
2024-02-09T07:56:08.893Z,2272.00
2024-02-09T07:57:08.893Z,2037.00
2024-02-09T07:58:08.968Z,1832.00
2024-02-09T07:59:08.942Z,1773.00
2024-02-09T08:00:09.009Z,1754.00
2024-02-09T08:01:09.116Z,1660.00
2024-02-09T08:02:09.216Z,1491.00
2024-02-09T08:03:09.102Z,1418.00
2024-02-09T08:04:09.237Z,1353.00
2024-02-09T08:05:09.426Z,1286.00
2024-02-09T08:06:09.291Z,1235.00
2024-02-09T08:07:09.332Z,1219.00
2024-02-09T08:08:09.407Z,1314.00
2024-02-09T08:09:09.416Z,1452.00
2024-02-09T08:10:09.545Z,1470.00
2024-02-09T08:11:09.535Z,1515.00
2024-02-09T08:12:12.578Z,1659.00
2024-02-09T08:13:09.617Z,1767.00
2024-02-09T08:14:09.606Z,1741.00
2024-02-09T08:15:09.576Z,1702.00
2024-02-09T08:16:09.575Z,1672.00
2024-02-09T08:17:09.569Z,1678.00
2024-02-09T08:18:09.614Z,1682.00
2024-02-09T08:19:09.650Z,1686.00
2024-02-09T08:20:09.618Z,1687.00
2024-02-09T08:21:09.577Z,1690.00
2024-02-09T08:22:09.583Z,1694.00
2024-02-09T08:23:09.614Z,1698.00
2024-02-09T08:24:11.159Z,1696.00
2024-02-09T08:25:09.638Z,1701.00
2024-02-09T08:26:09.581Z,1707.00
2024-02-09T08:27:09.575Z,1720.00
2024-02-09T08:28:09.616Z,1723.00
2024-02-09T08:29:09.597Z,1725.00
2024-02-09T08:30:09.597Z,1730.00
2024-02-09T08:31:09.635Z,1738.00
2024-02-09T08:32:09.592Z,1750.00
2024-02-09T08:33:09.631Z,1757.00
2024-02-09T08:34:09.776Z,1764.00
2024-02-09T08:35:09.756Z,1767.00
2024-02-09T08:36:09.603Z,1776.00
2024-02-09T08:37:09.676Z,1777.00
2024-02-09T08:38:09.577Z,1781.00
2024-02-09T08:39:09.601Z,1788.00
2024-02-09T08:40:09.645Z,1796.00
2024-02-09T08:41:09.614Z,1801.00
2024-02-09T08:42:09.625Z,1806.00
2024-02-09T08:43:09.638Z,1811.00
2024-02-09T08:44:09.589Z,1819.00
2024-02-09T08:45:09.617Z,1823.00
2024-02-09T08:46:09.607Z,1830.00
2024-02-09T08:47:09.612Z,1831.00
2024-02-09T08:48:09.625Z,1827.00
2024-02-09T08:49:09.651Z,1822.00
2024-02-09T08:50:09.656Z,1819.00
2024-02-09T08:51:09.595Z,1812.00
2024-02-09T08:52:09.616Z,1807.00
2024-02-09T08:53:09.603Z,1810.00
2024-02-09T08:54:09.584Z,1807.00
2024-02-09T08:55:09.609Z,1808.00
2024-02-09T08:56:09.585Z,1804.00
2024-02-09T08:57:09.591Z,1800.00
2024-02-09T08:58:09.636Z,1799.00
2024-02-09T08:59:11.727Z,1800.00
2024-02-09T09:00:09.613Z,1804.00
2024-02-09T09:01:09.718Z,1802.00
2024-02-09T09:02:09.697Z,1800.00
2024-02-09T09:03:09.637Z,1803.00
2024-02-09T09:04:09.624Z,1802.00
2024-02-09T09:05:10.474Z,1802.00
2024-02-09T09:06:09.704Z,1796.00
2024-02-09T09:07:09.689Z,1794.00
2024-02-09T09:08:09.593Z,1786.00
2024-02-09T09:09:09.632Z,1764.00
2024-02-09T09:10:09.698Z,1761.00
2024-02-09T09:11:09.645Z,1759.00
2024-02-09T09:12:12.113Z,1750.00
2024-02-09T09:13:09.642Z,1740.00
2024-02-09T09:14:09.595Z,1732.00
2024-02-09T09:15:09.607Z,1733.00
2024-02-09T09:16:09.645Z,1731.00
2024-02-09T09:17:18.076Z,1731.00
2024-02-09T09:18:10.664Z,1729.00
2024-02-09T09:19:09.671Z,1731.00
2024-02-09T09:20:09.636Z,1729.00
2024-02-09T09:21:09.630Z,1729.00
2024-02-09T09:22:09.641Z,1732.00
2024-02-09T09:23:09.623Z,1733.00
2024-02-09T09:24:09.611Z,1735.00
2024-02-09T09:25:09.641Z,1733.00
2024-02-09T09:26:17.486Z,1732.00
2024-02-09T09:27:10.654Z,1732.00
2024-02-09T09:28:09.646Z,1734.00
2024-02-09T09:29:09.634Z,1732.00
2024-02-09T09:30:09.618Z,1732.00
2024-02-09T09:31:09.666Z,1729.00
2024-02-09T09:32:09.628Z,1727.00
2024-02-09T09:33:09.642Z,1728.00
2024-02-09T09:34:09.674Z,1725.00
2024-02-09T09:35:09.750Z,1723.00
2024-02-09T09:36:09.674Z,1721.00
2024-02-09T09:37:09.660Z,1714.00
2024-02-09T09:38:09.624Z,1709.00
2024-02-09T09:39:10.620Z,1704.00
2024-02-09T09:40:09.816Z,1696.00
2024-02-09T09:41:09.704Z,1690.00
2024-02-09T09:42:09.660Z,1686.00
2024-02-09T09:43:09.677Z,1682.00
2024-02-09T09:44:09.664Z,1677.00
2024-02-09T09:45:09.665Z,1673.00
2024-02-09T09:46:09.830Z,1673.00
2024-02-09T09:47:09.654Z,1674.00
2024-02-09T09:48:09.711Z,1673.00
2024-02-09T09:49:09.869Z,1673.00
2024-02-09T09:50:09.804Z,1671.00
2024-02-09T09:51:09.710Z,1674.00
2024-02-09T09:52:09.727Z,1674.00
2024-02-09T09:53:09.791Z,1672.00
2024-02-09T09:54:09.674Z,1672.00
2024-02-09T09:55:09.682Z,1668.00
2024-02-09T09:56:09.732Z,1664.00
2024-02-09T09:57:09.716Z,1664.00
2024-02-09T09:58:09.763Z,1659.00
2024-02-09T09:59:09.762Z,1658.00
2024-02-09T10:00:09.778Z,1655.00
2024-02-09T10:01:15.302Z,1657.00
2024-02-09T10:02:09.826Z,1658.00
2024-02-09T10:03:09.812Z,1656.00
2024-02-09T10:04:09.845Z,1662.00
2024-02-09T10:05:09.975Z,1665.00
2024-02-09T10:06:10.058Z,1662.00
2024-02-09T10:07:09.877Z,1664.00
2024-02-09T10:08:09.927Z,1664.00
2024-02-09T10:09:09.808Z,1661.00
2024-02-09T10:10:09.855Z,1663.00
2024-02-09T10:11:09.822Z,1661.00
2024-02-09T10:12:09.820Z,1662.00
2024-02-09T10:13:11.656Z,1664.00
2024-02-09T10:14:09.798Z,1671.00
2024-02-09T10:15:09.816Z,1674.00
2024-02-09T10:16:09.860Z,1671.00
2024-02-09T10:17:09.819Z,1668.00
2024-02-09T10:18:09.896Z,1669.00
2024-02-09T10:19:09.917Z,1669.00
2024-02-09T10:20:09.816Z,1669.00
2024-02-09T10:21:09.815Z,1666.00
2024-02-09T10:22:16.127Z,1661.00
2024-02-09T10:23:10.935Z,1657.00
2024-02-09T10:24:11.294Z,1652.00
2024-02-09T10:25:09.962Z,1649.00
2024-02-09T10:26:09.839Z,1643.00
2024-02-09T10:27:09.843Z,1645.00
2024-02-09T10:28:09.861Z,1644.00
2024-02-09T10:29:09.848Z,1643.00
2024-02-09T10:30:09.832Z,1644.00
2024-02-09T10:31:09.872Z,1643.00
2024-02-09T10:32:09.872Z,1643.00
2024-02-09T10:33:09.848Z,1643.00
2024-02-09T10:34:10.035Z,1644.00
2024-02-09T10:35:09.921Z,1641.00
2024-02-09T10:36:09.995Z,1640.00
2024-02-09T10:37:17.004Z,1637.00
2024-02-09T10:38:11.021Z,1632.00
2024-02-09T10:39:09.907Z,1628.00
2024-02-09T10:40:09.894Z,1623.00
2024-02-09T10:41:09.847Z,1624.00
2024-02-09T10:42:09.854Z,1624.00
2024-02-09T10:43:09.931Z,1622.00
2024-02-09T10:44:09.884Z,1618.00
2024-02-09T10:45:13.904Z,1612.00
2024-02-09T10:46:10.909Z,1610.00
2024-02-09T10:47:09.885Z,1608.00
2024-02-09T10:48:09.943Z,1604.00
2024-02-09T10:49:10.072Z,1557.00
2024-02-09T10:50:09.991Z,1237.00
2024-02-09T10:51:09.861Z,1418.00
2024-02-09T10:52:09.887Z,1276.00
2024-02-09T10:53:09.864Z,1289.00
2024-02-09T10:54:09.920Z,1282.00
2024-02-09T10:55:09.936Z,1285.00
2024-02-09T10:56:09.895Z,1292.00
2024-02-09T10:57:09.912Z,1296.00
2024-02-09T10:58:09.944Z,1193.00
2024-02-09T10:59:09.865Z,1193.00
2024-02-09T11:00:09.872Z,1184.00
2024-02-09T11:01:09.969Z,1191.00
2024-02-09T11:02:09.998Z,1128.00
2024-02-09T11:03:10.017Z,1207.00
2024-02-09T11:04:10.150Z,1212.00
2024-02-09T11:05:10.262Z,1277.00
2024-02-09T11:06:10.262Z,1304.00
2024-02-09T11:07:10.284Z,1285.00
2024-02-09T11:08:10.352Z,1243.00
2024-02-09T11:09:10.314Z,1302.00
2024-02-09T11:10:10.396Z,1284.00
2024-02-09T11:11:10.386Z,1272.00
2024-02-09T11:12:10.430Z,1297.00
2024-02-09T11:13:10.458Z,1304.00
2024-02-09T11:14:10.663Z,1298.00
2024-02-09T11:15:10.513Z,1235.00
2024-02-09T11:16:10.642Z,1237.00
2024-02-09T11:17:10.603Z,1251.00
2024-02-09T11:18:10.611Z,1277.00
2024-02-09T11:19:10.684Z,1197.00
2024-02-09T11:20:10.665Z,1297.00
2024-02-09T11:21:10.675Z,1323.00
2024-02-09T11:22:10.812Z,1329.00
2024-02-09T11:23:10.736Z,1334.00
2024-02-09T11:24:10.748Z,1339.00
2024-02-09T11:25:10.795Z,1346.00
2024-02-09T11:26:10.801Z,1357.00
2024-02-09T11:27:10.769Z,1356.00
2024-02-09T11:28:10.809Z,1382.00
2024-02-09T11:29:10.775Z,1397.00
2024-02-09T11:30:10.803Z,1461.00
2024-02-09T11:31:10.838Z,1469.00
2024-02-09T11:32:10.841Z,1476.00
2024-02-09T11:33:10.872Z,1482.00
2024-02-09T11:34:11.040Z,1501.00
2024-02-09T11:35:11.073Z,1509.00
2024-02-09T11:36:11.064Z,1516.00
2024-02-09T11:37:11.236Z,1525.00
2024-02-09T11:38:11.224Z,1567.00
2024-02-09T11:39:11.285Z,1573.00
2024-02-09T11:40:11.437Z,1573.00
2024-02-09T11:41:11.442Z,1607.00
2024-02-09T11:42:12.056Z,1650.00
2024-02-09T11:43:11.581Z,1638.00
2024-02-09T11:44:11.654Z,1648.00
2024-02-09T11:45:11.707Z,1639.00
2024-02-09T11:46:11.837Z,1636.00
2024-02-09T11:47:11.852Z,1631.00
2024-02-09T11:48:11.976Z,1629.00
2024-02-09T11:49:12.082Z,1629.00
2024-02-09T11:50:12.065Z,1631.00
2024-02-09T11:51:12.083Z,1633.00
2024-02-09T11:52:12.157Z,1640.00
2024-02-09T11:53:13.421Z,1642.00
2024-02-09T11:54:12.214Z,1645.00
2024-02-09T11:55:12.296Z,1649.00
2024-02-09T11:56:12.307Z,1649.00
2024-02-09T11:57:14.544Z,1653.00
2024-02-09T11:58:12.438Z,1649.00
2024-02-09T11:59:12.454Z,1647.00
2024-02-09T12:00:12.443Z,1647.00
2024-02-09T12:01:12.557Z,1653.00
2024-02-09T12:02:12.583Z,1655.00
2024-02-09T12:03:15.870Z,1650.00
2024-02-09T12:04:12.699Z,1648.00
2024-02-09T12:05:12.589Z,1648.00
2024-02-09T12:06:12.487Z,1650.00
2024-02-09T12:07:12.580Z,1650.00
2024-02-09T12:08:12.565Z,1648.00
2024-02-09T12:09:14.797Z,1646.00
2024-02-09T12:10:12.643Z,1641.00
2024-02-09T12:11:12.639Z,1640.00
2024-02-09T12:12:12.702Z,1636.00
2024-02-09T12:13:12.782Z,1637.00
2024-02-09T12:14:12.756Z,1638.00
2024-02-09T12:15:12.802Z,1640.00
2024-02-09T12:16:12.874Z,1637.00
2024-02-09T12:17:12.877Z,1638.00
2024-02-09T12:18:13.061Z,1637.00
2024-02-09T12:19:13.010Z,1638.00